sensor_id;sensor_type;location;lat;lon;timestamp;P1;durP1;ratioP1;P2;durP2;ratioP2
7983;SDS011;4037;47.980;10.172;2023-04-01T00:02:18;3.20;;;1.30;;
7983;SDS011;4037;47.980;10.172;2023-04-01T00:04:44;1.30;;;0.90;;
7983;SDS011;4037;47.980;10.172;2023-04-01T00:07:10;3.23;;;1.33;;
7983;SDS011;4037;47.980;10.172;2023-04-01T00:09:36;2.33;;;1.10;;
7983;SDS011;4037;47.980;10.172;2023-04-01T00:12:03;4.93;;;1.27;;
7983;SDS011;4037;47.980;10.172;2023-04-01T00:14:29;3.33;;;1.60;;
7983;SDS011;4037;47.980;10.172;2023-04-01T00:16:55;4.33;;;1.33;;
7983;SDS011;4037;47.980;10.172;2023-04-01T00:19:21;3.37;;;1.20;;
7983;SDS011;4037;47.980;10.172;2023-04-01T00:21:47;2.90;;;1.57;;
7983;SDS011;4037;47.980;10.172;2023-04-01T00:24:13;3.30;;;1.30;;
7983;SDS011;4037;47.980;10.172;2023-04-01T00:26:39;4.10;;;1.20;;
7983;SDS011;4037;47.980;10.172;2023-04-01T00:29:07;3.27;;;1.10;;
7983;SDS011;4037;47.980;10.172;2023-04-01T00:31:33;3.23;;;1.23;;
7983;SDS011;4037;47.980;10.172;2023-04-01T00:33:59;5.10;;;1.30;;
7983;SDS011;4037;47.980;10.172;2023-04-01T00:36:25;1.83;;;1.20;;
7983;SDS011;4037;47.980;10.172;2023-04-01T00:38:51;3.97;;;1.20;;
7983;SDS011;4037;47.980;10.172;2023-04-01T00:41:18;3.00;;;1.37;;
7983;SDS011;4037;47.980;10.172;2023-04-01T00:43:47;2.50;;;1.53;;
7983;SDS011;4037;47.980;10.172;2023-04-01T00:46:13;1.87;;;1.00;;
7983;SDS011;4037;47.980;10.172;2023-04-01T00:48:40;3.17;;;1.13;;
7983;SDS011;4037;47.980;10.172;2023-04-01T00:51:09;3.20;;;1.10;;
7983;SDS011;4037;47.980;10.172;2023-04-01T00:53:36;2.73;;;1.13;;
7983;SDS011;4037;47.980;10.172;2023-04-01T00:56:17;1.53;;;1.10;;
7983;SDS011;4037;47.980;10.172;2023-04-01T00:58:46;1.77;;;0.90;;
7983;SDS011;4037;47.980;10.172;2023-04-01T01:01:12;1.37;;;0.93;;
7983;SDS011;4037;47.980;10.172;2023-04-01T01:03:38;2.47;;;1.03;;
7983;SDS011;4037;47.980;10.172;2023-04-01T01:06:09;2.67;;;1.30;;
7983;SDS011;4037;47.980;10.172;2023-04-01T01:11:05;3.57;;;0.93;;
7983;SDS011;4037;47.980;10.172;2023-04-01T01:13:36;1.80;;;1.23;;
7983;SDS011;4037;47.980;10.172;2023-04-01T01:16:06;2.23;;;1.10;;
7983;SDS011;4037;47.980;10.172;2023-04-01T01:23:42;1.30;;;1.20;;
7983;SDS011;4037;47.980;10.172;2023-04-01T01:31:16;2.03;;;1.10;;
7983;SDS011;4037;47.980;10.172;2023-04-01T01:36:32;1.73;;;1.00;;
7983;SDS011;4037;47.980;10.172;2023-04-01T01:39:00;1.13;;;0.77;;
7983;SDS011;4037;47.980;10.172;2023-04-01T01:41:26;0.97;;;0.93;;
7983;SDS011;4037;47.980;10.172;2023-04-01T01:43:53;0.90;;;0.87;;
7983;SDS011;4037;47.980;10.172;2023-04-01T01:46:21;1.03;;;0.90;;
7983;SDS011;4037;47.980;10.172;2023-04-01T01:48:48;1.90;;;0.80;;
7983;SDS011;4037;47.980;10.172;2023-04-01T01:51:15;2.40;;;0.63;;
7983;SDS011;4037;47.980;10.172;2023-04-01T01:53:41;2.33;;;1.00;;
7983;SDS011;4037;47.980;10.172;2023-04-01T01:56:09;0.87;;;0.87;;
7983;SDS011;4037;47.980;10.172;2023-04-01T01:58:42;1.63;;;0.90;;
7983;SDS011;4037;47.980;10.172;2023-04-01T02:01:12;0.80;;;0.80;;
7983;SDS011;4037;47.980;10.172;2023-04-01T02:03:39;1.27;;;0.70;;
7983;SDS011;4037;47.980;10.172;2023-04-01T02:06:07;2.10;;;0.70;;
7983;SDS011;4037;47.980;10.172;2023-04-01T02:08:34;1.57;;;1.00;;
7983;SDS011;4037;47.980;10.172;2023-04-01T02:11:05;1.10;;;1.00;;
7983;SDS011;4037;47.980;10.172;2023-04-01T02:13:34;1.20;;;0.80;;
7983;SDS011;4037;47.980;10.172;2023-04-01T02:16:03;1.13;;;0.73;;
7983;SDS011;4037;47.980;10.172;2023-04-01T02:18:32;0.90;;;0.90;;
7983;SDS011;4037;47.980;10.172;2023-04-01T02:21:00;1.40;;;0.90;;
7983;SDS011;4037;47.980;10.172;2023-04-01T02:23:26;1.20;;;0.80;;
7983;SDS011;4037;47.980;10.172;2023-04-01T02:25:53;0.93;;;0.77;;
7983;SDS011;4037;47.980;10.172;2023-04-01T02:28:20;0.83;;;0.83;;
7983;SDS011;4037;47.980;10.172;2023-04-01T02:30:48;1.03;;;0.90;;
7983;SDS011;4037;47.980;10.172;2023-04-01T02:33:15;2.20;;;0.80;;
7983;SDS011;4037;47.980;10.172;2023-04-01T02:35:42;1.47;;;0.87;;
7983;SDS011;4037;47.980;10.172;2023-04-01T02:38:08;2.43;;;0.97;;
7983;SDS011;4037;47.980;10.172;2023-04-01T02:40:45;1.53;;;0.97;;
7983;SDS011;4037;47.980;10.172;2023-04-01T02:43:11;2.40;;;1.10;;
7983;SDS011;4037;47.980;10.172;2023-04-01T02:45:37;1.30;;;0.80;;
7983;SDS011;4037;47.980;10.172;2023-04-01T02:48:03;2.23;;;1.00;;
7983;SDS011;4037;47.980;10.172;2023-04-01T02:50:29;3.03;;;1.37;;
7983;SDS011;4037;47.980;10.172;2023-04-01T02:52:55;1.07;;;0.90;;
7983;SDS011;4037;47.980;10.172;2023-04-01T02:55:21;1.20;;;1.10;;
7983;SDS011;4037;47.980;10.172;2023-04-01T02:57:47;1.63;;;1.00;;
7983;SDS011;4037;47.980;10.172;2023-04-01T03:00:13;2.30;;;1.27;;
7983;SDS011;4037;47.980;10.172;2023-04-01T03:02:39;1.37;;;1.00;;
7983;SDS011;4037;47.980;10.172;2023-04-01T03:05:06;2.10;;;1.10;;
7983;SDS011;4037;47.980;10.172;2023-04-01T03:07:32;2.67;;;1.17;;
7983;SDS011;4037;47.980;10.172;2023-04-01T03:09:59;1.87;;;1.00;;
7983;SDS011;4037;47.980;10.172;2023-04-01T03:12:25;1.10;;;1.00;;
7983;SDS011;4037;47.980;10.172;2023-04-01T03:14:51;2.60;;;1.03;;
7983;SDS011;4037;47.980;10.172;2023-04-01T03:17:17;3.77;;;1.20;;
7983;SDS011;4037;47.980;10.172;2023-04-01T03:19:43;1.73;;;1.10;;
7983;SDS011;4037;47.980;10.172;2023-04-01T03:22:10;1.57;;;1.00;;
7983;SDS011;4037;47.980;10.172;2023-04-01T03:24:36;0.80;;;0.80;;
7983;SDS011;4037;47.980;10.172;2023-04-01T03:27:02;2.17;;;1.10;;
7983;SDS011;4037;47.980;10.172;2023-04-01T03:29:28;2.07;;;1.27;;
7983;SDS011;4037;47.980;10.172;2023-04-01T03:31:54;3.23;;;1.47;;
7983;SDS011;4037;47.980;10.172;2023-04-01T03:34:22;1.00;;;0.90;;
7983;SDS011;4037;47.980;10.172;2023-04-01T03:36:48;2.17;;;1.10;;
7983;SDS011;4037;47.980;10.172;2023-04-01T03:39:16;1.93;;;1.10;;
7983;SDS011;4037;47.980;10.172;2023-04-01T03:41:45;1.17;;;0.90;;
7983;SDS011;4037;47.980;10.172;2023-04-01T03:44:11;1.70;;;1.27;;
7983;SDS011;4037;47.980;10.172;2023-04-01T03:46:37;1.57;;;1.13;;
7983;SDS011;4037;47.980;10.172;2023-04-01T03:49:06;1.43;;;1.10;;
7983;SDS011;4037;47.980;10.172;2023-04-01T03:51:36;1.20;;;1.10;;
7983;SDS011;4037;47.980;10.172;2023-04-01T03:54:02;1.70;;;0.93;;
7983;SDS011;4037;47.980;10.172;2023-04-01T03:56:28;1.80;;;1.17;;
7983;SDS011;4037;47.980;10.172;2023-04-01T03:58:54;1.60;;;1.50;;
7983;SDS011;4037;47.980;10.172;2023-04-01T04:01:20;6.93;;;1.30;;
7983;SDS011;4037;47.980;10.172;2023-04-01T04:03:47;1.40;;;1.03;;
7983;SDS011;4037;47.980;10.172;2023-04-01T04:06:14;3.30;;;1.30;;
7983;SDS011;4037;47.980;10.172;2023-04-01T04:08:40;3.83;;;2.00;;
7983;SDS011;4037;47.980;10.172;2023-04-01T04:11:06;2.20;;;1.60;;
7983;SDS011;4037;47.980;10.172;2023-04-01T04:13:33;5.77;;;1.67;;
7983;SDS011;4037;47.980;10.172;2023-04-01T04:15:59;3.63;;;1.20;;
7983;SDS011;4037;47.980;10.172;2023-04-01T04:18:25;1.83;;;1.13;;
7983;SDS011;4037;47.980;10.172;2023-04-01T04:20:51;1.50;;;1.40;;
7983;SDS011;4037;47.980;10.172;2023-04-01T04:23:17;1.87;;;1.17;;
7983;SDS011;4037;47.980;10.172;2023-04-01T04:25:57;1.33;;;1.00;;
7983;SDS011;4037;47.980;10.172;2023-04-01T04:28:23;2.00;;;1.10;;
7983;SDS011;4037;47.980;10.172;2023-04-01T04:30:49;1.30;;;1.20;;
7983;SDS011;4037;47.980;10.172;2023-04-01T04:33:15;1.40;;;1.20;;
7983;SDS011;4037;47.980;10.172;2023-04-01T04:35:41;4.60;;;1.30;;
7983;SDS011;4037;47.980;10.172;2023-04-01T04:38:07;2.70;;;1.07;;
7983;SDS011;4037;47.980;10.172;2023-04-01T04:40:35;3.13;;;1.27;;
7983;SDS011;4037;47.980;10.172;2023-04-01T04:43:02;3.20;;;1.30;;
7983;SDS011;4037;47.980;10.172;2023-04-01T04:45:28;1.30;;;1.00;;
7983;SDS011;4037;47.980;10.172;2023-04-01T04:47:54;2.10;;;1.10;;
7983;SDS011;4037;47.980;10.172;2023-04-01T04:50:20;3.80;;;1.50;;
7983;SDS011;4037;47.980;10.172;2023-04-01T04:52:46;2.20;;;1.50;;
7983;SDS011;4037;47.980;10.172;2023-04-01T04:55:12;4.57;;;1.13;;
7983;SDS011;4037;47.980;10.172;2023-04-01T04:57:39;4.23;;;1.47;;
7983;SDS011;4037;47.980;10.172;2023-04-01T05:00:05;1.70;;;1.40;;
7983;SDS011;4037;47.980;10.172;2023-04-01T05:02:32;4.03;;;1.20;;
7983;SDS011;4037;47.980;10.172;2023-04-01T05:04:58;3.40;;;1.20;;
7983;SDS011;4037;47.980;10.172;2023-04-01T05:07:24;4.27;;;1.40;;
7983;SDS011;4037;47.980;10.172;2023-04-01T05:09:50;5.93;;;1.43;;
7983;SDS011;4037;47.980;10.172;2023-04-01T05:12:16;2.07;;;1.43;;
7983;SDS011;4037;47.980;10.172;2023-04-01T05:14:42;4.50;;;1.20;;
7983;SDS011;4037;47.980;10.172;2023-04-01T05:17:11;3.20;;;1.30;;
7983;SDS011;4037;47.980;10.172;2023-04-01T05:19:38;3.07;;;1.50;;
7983;SDS011;4037;47.980;10.172;2023-04-01T05:22:04;5.13;;;1.30;;
7983;SDS011;4037;47.980;10.172;2023-04-01T05:24:30;4.73;;;1.43;;
7983;SDS011;4037;47.980;10.172;2023-04-01T05:26:56;3.53;;;1.80;;
7983;SDS011;4037;47.980;10.172;2023-04-01T05:29:23;3.13;;;1.60;;
7983;SDS011;4037;47.980;10.172;2023-04-01T05:31:49;2.80;;;1.23;;
7983;SDS011;4037;47.980;10.172;2023-04-01T05:34:15;1.37;;;1.20;;
7983;SDS011;4037;47.980;10.172;2023-04-01T05:36:41;2.13;;;1.30;;
7983;SDS011;4037;47.980;10.172;2023-04-01T05:39:07;3.50;;;1.40;;
7983;SDS011;4037;47.980;10.172;2023-04-01T05:41:37;2.83;;;1.00;;
7983;SDS011;4037;47.980;10.172;2023-04-01T05:44:03;4.10;;;1.73;;
7983;SDS011;4037;47.980;10.172;2023-04-01T05:46:30;3.77;;;1.30;;
7983;SDS011;4037;47.980;10.172;2023-04-01T05:48:56;2.63;;;1.13;;
7983;SDS011;4037;47.980;10.172;2023-04-01T05:51:23;4.50;;;1.30;;
7983;SDS011;4037;47.980;10.172;2023-04-01T05:53:49;3.53;;;1.30;;
7983;SDS011;4037;47.980;10.172;2023-04-01T05:56:15;3.50;;;1.20;;
7983;SDS011;4037;47.980;10.172;2023-04-01T05:58:41;1.63;;;1.30;;
7983;SDS011;4037;47.980;10.172;2023-04-01T06:01:08;2.33;;;1.33;;
7983;SDS011;4037;47.980;10.172;2023-04-01T06:03:34;2.63;;;1.10;;
7983;SDS011;4037;47.980;10.172;2023-04-01T06:06:00;4.07;;;1.30;;
7983;SDS011;4037;47.980;10.172;2023-04-01T06:08:27;3.30;;;1.70;;
7983;SDS011;4037;47.980;10.172;2023-04-01T06:16:21;2.37;;;1.37;;
7983;SDS011;4037;47.980;10.172;2023-04-01T06:31:24;2.97;;;1.07;;
7983;SDS011;4037;47.980;10.172;2023-04-01T06:49:33;1.80;;;1.00;;
7983;SDS011;4037;47.980;10.172;2023-04-01T06:52:22;2.13;;;1.10;;
7983;SDS011;4037;47.980;10.172;2023-04-01T06:54:53;1.80;;;1.13;;
7983;SDS011;4037;47.980;10.172;2023-04-01T07:00:27;1.53;;;1.20;;
7983;SDS011;4037;47.980;10.172;2023-04-01T07:03:17;3.27;;;1.57;;
7983;SDS011;4037;47.980;10.172;2023-04-01T07:05:39;2.87;;;0.90;;
7983;SDS011;4037;47.980;10.172;2023-04-01T07:08:06;1.67;;;1.00;;
7983;SDS011;4037;47.980;10.172;2023-04-01T07:10:51;1.43;;;1.20;;
7983;SDS011;4037;47.980;10.172;2023-04-01T07:13:24;2.53;;;1.10;;
7983;SDS011;4037;47.980;10.172;2023-04-01T07:18:34;1.00;;;0.90;;
7983;SDS011;4037;47.980;10.172;2023-04-01T07:21:02;2.30;;;0.90;;
7983;SDS011;4037;47.980;10.172;2023-04-01T07:23:31;3.03;;;1.00;;
7983;SDS011;4037;47.980;10.172;2023-04-01T07:26:00;2.00;;;1.03;;
7983;SDS011;4037;47.980;10.172;2023-04-01T07:28:26;0.97;;;0.80;;
7983;SDS011;4037;47.980;10.172;2023-04-01T07:35:55;1.40;;;0.90;;
7983;SDS011;4037;47.980;10.172;2023-04-01T07:41:03;1.00;;;0.90;;
7983;SDS011;4037;47.980;10.172;2023-04-01T07:51:17;2.63;;;0.93;;
7983;SDS011;4037;47.980;10.172;2023-04-01T07:56:15;1.33;;;1.00;;
7983;SDS011;4037;47.980;10.172;2023-04-01T07:58:51;1.37;;;0.80;;
7983;SDS011;4037;47.980;10.172;2023-04-01T08:16:45;0.70;;;0.70;;
7983;SDS011;4037;47.980;10.172;2023-04-01T08:19:21;0.70;;;0.70;;
7983;SDS011;4037;47.980;10.172;2023-04-01T08:21:56;1.13;;;0.80;;
7983;SDS011;4037;47.980;10.172;2023-04-01T08:24:27;0.90;;;0.73;;
7983;SDS011;4037;47.980;10.172;2023-04-01T08:26:55;0.60;;;0.60;;
7983;SDS011;4037;47.980;10.172;2023-04-01T08:29:30;1.90;;;1.00;;
7983;SDS011;4037;47.980;10.172;2023-04-01T08:32:06;1.37;;;0.90;;
7983;SDS011;4037;47.980;10.172;2023-04-01T08:34:34;5.00;;;0.93;;
7983;SDS011;4037;47.980;10.172;2023-04-01T08:37:04;0.80;;;0.77;;
7983;SDS011;4037;47.980;10.172;2023-04-01T08:39:32;1.17;;;0.90;;
7983;SDS011;4037;47.980;10.172;2023-04-01T08:50:06;0.80;;;0.70;;
7983;SDS011;4037;47.980;10.172;2023-04-01T08:52:37;0.83;;;0.83;;
7983;SDS011;4037;47.980;10.172;2023-04-01T09:00:33;0.97;;;0.83;;
7983;SDS011;4037;47.980;10.172;2023-04-01T09:08:30;1.07;;;1.00;;
7983;SDS011;4037;47.980;10.172;2023-04-01T09:27:04;0.80;;;0.80;;
7983;SDS011;4037;47.980;10.172;2023-04-01T09:32:23;0.77;;;0.77;;
7983;SDS011;4037;47.980;10.172;2023-04-01T09:34:53;0.97;;;0.70;;
7983;SDS011;4037;47.980;10.172;2023-04-01T09:37:21;0.80;;;0.80;;
7983;SDS011;4037;47.980;10.172;2023-04-01T09:40:10;0.70;;;0.70;;
7983;SDS011;4037;47.980;10.172;2023-04-01T09:42:41;2.63;;;0.83;;
7983;SDS011;4037;47.980;10.172;2023-04-01T09:50:17;0.80;;;0.80;;
7983;SDS011;4037;47.980;10.172;2023-04-01T09:58:25;0.77;;;0.73;;
7983;SDS011;4037;47.980;10.172;2023-04-01T10:34:53;0.97;;;0.90;;
7983;SDS011;4037;47.980;10.172;2023-04-01T10:42:47;0.80;;;0.80;;
7983;SDS011;4037;47.980;10.172;2023-04-01T11:05:58;1.23;;;1.20;;
7983;SDS011;4037;47.980;10.172;2023-04-01T11:08:39;0.93;;;0.90;;
7983;SDS011;4037;47.980;10.172;2023-04-01T11:17:59;0.80;;;0.80;;
7983;SDS011;4037;47.980;10.172;2023-04-01T11:22:43;1.27;;;0.90;;
7983;SDS011;4037;47.980;10.172;2023-04-01T11:38:09;1.00;;;0.90;;
7983;SDS011;4037;47.980;10.172;2023-04-01T11:56:21;1.50;;;1.10;;
7983;SDS011;4037;47.980;10.172;2023-04-01T11:59:04;0.80;;;0.80;;
7983;SDS011;4037;47.980;10.172;2023-04-01T12:09:42;1.93;;;1.00;;
7983;SDS011;4037;47.980;10.172;2023-04-01T12:15:08;0.90;;;0.90;;
7983;SDS011;4037;47.980;10.172;2023-04-01T12:23:04;0.90;;;0.90;;
7983;SDS011;4037;47.980;10.172;2023-04-01T12:25:37;0.80;;;0.80;;
7983;SDS011;4037;47.980;10.172;2023-04-01T12:28:10;0.97;;;0.87;;
7983;SDS011;4037;47.980;10.172;2023-04-01T12:42:00;1.63;;;0.80;;
7983;SDS011;4037;47.980;10.172;2023-04-01T12:44:39;1.53;;;0.87;;
7983;SDS011;4037;47.980;10.172;2023-04-01T13:05:45;2.07;;;1.20;;
7983;SDS011;4037;47.980;10.172;2023-04-01T13:08:29;3.30;;;2.83;;
7983;SDS011;4037;47.980;10.172;2023-04-01T13:28:56;1.77;;;1.47;;
7983;SDS011;4037;47.980;10.172;2023-04-01T13:39:03;2.63;;;1.30;;
7983;SDS011;4037;47.980;10.172;2023-04-01T13:57:07;0.60;;;0.60;;
7983;SDS011;4037;47.980;10.172;2023-04-01T14:02:19;0.63;;;0.63;;
7983;SDS011;4037;47.980;10.172;2023-04-01T14:25:41;0.70;;;0.70;;
7983;SDS011;4037;47.980;10.172;2023-04-01T14:30:40;1.47;;;0.80;;
7983;SDS011;4037;47.980;10.172;2023-04-01T14:35:37;0.93;;;0.83;;
7983;SDS011;4037;47.980;10.172;2023-04-01T14:38:11;1.47;;;0.83;;
7983;SDS011;4037;47.980;10.172;2023-04-01T14:46:08;1.07;;;1.00;;
7983;SDS011;4037;47.980;10.172;2023-04-01T14:48:57;1.47;;;1.00;;
7983;SDS011;4037;47.980;10.172;2023-04-01T14:51:28;1.33;;;1.00;;
7983;SDS011;4037;47.980;10.172;2023-04-01T14:56:47;0.83;;;0.83;;
7983;SDS011;4037;47.980;10.172;2023-04-01T15:09:23;0.83;;;0.73;;
7983;SDS011;4037;47.980;10.172;2023-04-01T15:14:35;1.53;;;0.90;;
7983;SDS011;4037;47.980;10.172;2023-04-01T15:17:23;1.07;;;0.97;;
7983;SDS011;4037;47.980;10.172;2023-04-01T15:22:52;0.83;;;0.83;;
7983;SDS011;4037;47.980;10.172;2023-04-01T15:25:34;0.90;;;0.90;;
7983;SDS011;4037;47.980;10.172;2023-04-01T15:30:53;1.17;;;1.07;;
7983;SDS011;4037;47.980;10.172;2023-04-01T15:33:25;1.27;;;0.80;;
7983;SDS011;4037;47.980;10.172;2023-04-01T15:36:08;1.00;;;1.00;;
7983;SDS011;4037;47.980;10.172;2023-04-01T15:43:53;1.20;;;1.10;;
7983;SDS011;4037;47.980;10.172;2023-04-01T15:56:36;2.13;;;1.20;;
7983;SDS011;4037;47.980;10.172;2023-04-01T16:04:43;1.87;;;1.10;;
7983;SDS011;4037;47.980;10.172;2023-04-01T16:07:38;1.70;;;1.27;;
7983;SDS011;4037;47.980;10.172;2023-04-01T16:18:32;2.10;;;1.30;;
7983;SDS011;4037;47.980;10.172;2023-04-01T16:21:05;1.40;;;1.20;;
7983;SDS011;4037;47.980;10.172;2023-04-01T16:23:40;2.23;;;1.20;;
7983;SDS011;4037;47.980;10.172;2023-04-01T16:26:09;1.90;;;1.27;;
7983;SDS011;4037;47.980;10.172;2023-04-01T16:31:16;1.63;;;1.07;;
7983;SDS011;4037;47.980;10.172;2023-04-01T16:33:55;1.80;;;1.10;;
7983;SDS011;4037;47.980;10.172;2023-04-01T16:36:42;1.30;;;1.20;;
7983;SDS011;4037;47.980;10.172;2023-04-01T16:41:51;1.40;;;0.97;;
7983;SDS011;4037;47.980;10.172;2023-04-01T16:44:20;1.40;;;1.10;;
7983;SDS011;4037;47.980;10.172;2023-04-01T16:47:05;1.70;;;1.00;;
7983;SDS011;4037;47.980;10.172;2023-04-01T16:49:32;1.30;;;1.20;;
7983;SDS011;4037;47.980;10.172;2023-04-01T16:54:35;2.47;;;1.70;;
7983;SDS011;4037;47.980;10.172;2023-04-01T16:57:03;1.20;;;1.10;;
7983;SDS011;4037;47.980;10.172;2023-04-01T17:02:04;1.10;;;1.00;;
7983;SDS011;4037;47.980;10.172;2023-04-01T17:17:20;1.63;;;1.07;;
7983;SDS011;4037;47.980;10.172;2023-04-01T17:20:11;1.17;;;1.07;;
7983;SDS011;4037;47.980;10.172;2023-04-01T17:22:46;1.40;;;1.27;;
7983;SDS011;4037;47.980;10.172;2023-04-01T17:27:59;1.00;;;1.00;;
7983;SDS011;4037;47.980;10.172;2023-04-01T17:30:33;0.93;;;0.93;;
7983;SDS011;4037;47.980;10.172;2023-04-01T17:35:52;1.70;;;1.13;;
7983;SDS011;4037;47.980;10.172;2023-04-01T17:51:43;1.20;;;1.10;;
7983;SDS011;4037;47.980;10.172;2023-04-01T17:54:19;1.27;;;1.10;;
7983;SDS011;4037;47.980;10.172;2023-04-01T18:02:31;2.20;;;1.03;;
7983;SDS011;4037;47.980;10.172;2023-04-01T18:17:23;1.47;;;1.00;;
7983;SDS011;4037;47.980;10.172;2023-04-01T18:22:45;2.03;;;1.20;;
7983;SDS011;4037;47.980;10.172;2023-04-01T18:25:15;1.23;;;0.90;;
7983;SDS011;4037;47.980;10.172;2023-04-01T18:27:44;1.40;;;1.30;;
7983;SDS011;4037;47.980;10.172;2023-04-01T18:30:30;1.70;;;1.27;;
7983;SDS011;4037;47.980;10.172;2023-04-01T18:33:02;1.00;;;0.93;;
7983;SDS011;4037;47.980;10.172;2023-04-01T18:38:12;0.90;;;0.90;;
7983;SDS011;4037;47.980;10.172;2023-04-01T18:40:52;1.10;;;1.00;;
7983;SDS011;4037;47.980;10.172;2023-04-01T18:46:05;1.77;;;1.10;;
7983;SDS011;4037;47.980;10.172;2023-04-01T18:53:58;1.43;;;1.23;;
7983;SDS011;4037;47.980;10.172;2023-04-01T18:56:27;0.90;;;0.90;;
7983;SDS011;4037;47.980;10.172;2023-04-01T19:01:41;1.87;;;1.20;;
7983;SDS011;4037;47.980;10.172;2023-04-01T19:09:20;2.37;;;1.53;;
7983;SDS011;4037;47.980;10.172;2023-04-01T19:11:50;2.50;;;1.80;;
7983;SDS011;4037;47.980;10.172;2023-04-01T19:14:29;2.10;;;1.90;;
7983;SDS011;4037;47.980;10.172;2023-04-01T19:20:03;3.20;;;1.50;;
7983;SDS011;4037;47.980;10.172;2023-04-01T19:22:39;4.07;;;1.40;;
7983;SDS011;4037;47.980;10.172;2023-04-01T19:25:29;1.40;;;1.30;;
7983;SDS011;4037;47.980;10.172;2023-04-01T19:30:57;1.57;;;1.30;;
7983;SDS011;4037;47.980;10.172;2023-04-01T19:35:56;2.97;;;1.60;;
7983;SDS011;4037;47.980;10.172;2023-04-01T19:41:36;1.00;;;1.00;;
7983;SDS011;4037;47.980;10.172;2023-04-01T19:54:43;1.70;;;1.30;;
7983;SDS011;4037;47.980;10.172;2023-04-01T19:57:58;1.40;;;1.30;;
7983;SDS011;4037;47.980;10.172;2023-04-01T20:02:33;2.20;;;1.50;;
7983;SDS011;4037;47.980;10.172;2023-04-01T20:05:16;1.67;;;1.20;;
7983;SDS011;4037;47.980;10.172;2023-04-01T20:07:59;2.00;;;1.43;;
7983;SDS011;4037;47.980;10.172;2023-04-01T20:17:50;1.30;;;1.20;;
7983;SDS011;4037;47.980;10.172;2023-04-01T20:20:19;1.30;;;1.17;;
7983;SDS011;4037;47.980;10.172;2023-04-01T20:25:15;1.40;;;1.30;;
7983;SDS011;4037;47.980;10.172;2023-04-01T20:27:47;1.53;;;1.33;;
7983;SDS011;4037;47.980;10.172;2023-04-01T20:30:32;2.30;;;1.30;;
7983;SDS011;4037;47.980;10.172;2023-04-01T20:35:33;2.93;;;1.70;;
7983;SDS011;4037;47.980;10.172;2023-04-01T20:48:38;1.63;;;1.40;;
7983;SDS011;4037;47.980;10.172;2023-04-01T20:51:05;1.33;;;1.23;;
7983;SDS011;4037;47.980;10.172;2023-04-01T21:01:20;1.30;;;1.20;;
7983;SDS011;4037;47.980;10.172;2023-04-01T21:16:47;3.70;;;1.70;;
7983;SDS011;4037;47.980;10.172;2023-04-01T21:19:19;1.67;;;1.37;;
7983;SDS011;4037;47.980;10.172;2023-04-01T21:24:31;2.67;;;1.30;;
7983;SDS011;4037;47.980;10.172;2023-04-01T21:41:11;1.97;;;1.50;;
7983;SDS011;4037;47.980;10.172;2023-04-01T21:45:56;1.20;;;1.10;;
7983;SDS011;4037;47.980;10.172;2023-04-01T21:48:34;1.10;;;1.00;;
7983;SDS011;4037;47.980;10.172;2023-04-01T21:53:50;1.10;;;1.00;;
7983;SDS011;4037;47.980;10.172;2023-04-01T21:59:01;1.53;;;1.43;;
7983;SDS011;4037;47.980;10.172;2023-04-01T22:04:04;2.63;;;2.00;;
7983;SDS011;4037;47.980;10.172;2023-04-01T22:06:40;1.30;;;1.20;;
7983;SDS011;4037;47.980;10.172;2023-04-01T22:09:10;1.90;;;1.40;;
7983;SDS011;4037;47.980;10.172;2023-04-01T22:14:24;2.60;;;1.60;;
7983;SDS011;4037;47.980;10.172;2023-04-01T22:22:21;1.53;;;1.20;;
7983;SDS011;4037;47.980;10.172;2023-04-01T22:25:07;3.30;;;1.47;;
7983;SDS011;4037;47.980;10.172;2023-04-01T22:30:47;1.30;;;1.20;;
7983;SDS011;4037;47.980;10.172;2023-04-01T22:43:45;2.53;;;1.43;;
7983;SDS011;4037;47.980;10.172;2023-04-01T22:51:14;1.57;;;1.43;;
7983;SDS011;4037;47.980;10.172;2023-04-01T22:56:44;1.63;;;1.53;;
7983;SDS011;4037;47.980;10.172;2023-04-01T22:59:14;1.47;;;1.30;;
7983;SDS011;4037;47.980;10.172;2023-04-01T23:01:43;3.20;;;2.10;;
7983;SDS011;4037;47.980;10.172;2023-04-01T23:04:14;3.37;;;1.40;;
7983;SDS011;4037;47.980;10.172;2023-04-01T23:06:43;1.60;;;1.40;;
7983;SDS011;4037;47.980;10.172;2023-04-01T23:26:57;1.40;;;1.30;;
7983;SDS011;4037;47.980;10.172;2023-04-01T23:29:25;1.97;;;1.73;;
7983;SDS011;4037;47.980;10.172;2023-04-01T23:31:58;1.93;;;1.60;;
7983;SDS011;4037;47.980;10.172;2023-04-01T23:34:31;2.70;;;1.83;;
7983;SDS011;4037;47.980;10.172;2023-04-01T23:37:00;3.20;;;1.80;;
7983;SDS011;4037;47.980;10.172;2023-04-01T23:41:54;2.00;;;1.80;;
7983;SDS011;4037;47.980;10.172;2023-04-01T23:44:20;2.33;;;2.00;;
7983;SDS011;4037;47.980;10.172;2023-04-01T23:46:47;1.70;;;1.60;;
7983;SDS011;4037;47.980;10.172;2023-04-01T23:49:16;3.53;;;2.17;;
7983;SDS011;4037;47.980;10.172;2023-04-01T23:51:49;2.73;;;2.00;;
7983;SDS011;4037;47.980;10.172;2023-04-01T23:54:23;1.50;;;1.40;;
7983;SDS011;4037;47.980;10.172;2023-04-01T23:56:53;2.27;;;1.50;;
7983;SDS011;4037;47.980;10.172;2023-04-01T23:59:30;1.20;;;1.10;;
